sensor_id;sensor_type;location;lat;lon;timestamp;P1;durP1;ratioP1;P2;durP2;ratioP2
1785;SDS011;890;48.158;11.540;2023-02-24T00:01:23;9.50;;;7.00;;
1785;SDS011;890;48.158;11.540;2023-02-24T00:03:53;10.13;;;7.27;;
1785;SDS011;890;48.158;11.540;2023-02-24T00:06:24;9.67;;;7.17;;
1785;SDS011;890;48.158;11.540;2023-02-24T00:09:11;9.70;;;7.33;;
1785;SDS011;890;48.158;11.540;2023-02-24T00:12:01;9.23;;;7.00;;
1785;SDS011;890;48.158;11.540;2023-02-24T00:14:31;7.23;;;6.53;;
1785;SDS011;890;48.158;11.540;2023-02-24T00:16:59;9.40;;;7.63;;
1785;SDS011;890;48.158;11.540;2023-02-24T00:19:27;12.53;;;7.70;;
1785;SDS011;890;48.158;11.540;2023-02-24T00:21:56;9.13;;;7.23;;
1785;SDS011;890;48.158;11.540;2023-02-24T00:24:23;10.60;;;8.03;;
1785;SDS011;890;48.158;11.540;2023-02-24T00:26:51;8.77;;;7.87;;
1785;SDS011;890;48.158;11.540;2023-02-24T00:29:18;8.77;;;7.70;;
1785;SDS011;890;48.158;11.540;2023-02-24T00:31:45;9.23;;;7.20;;
1785;SDS011;890;48.158;11.540;2023-02-24T00:34:13;8.30;;;7.40;;
1785;SDS011;890;48.158;11.540;2023-02-24T00:36:39;8.20;;;7.33;;
1785;SDS011;890;48.158;11.540;2023-02-24T00:39:06;11.50;;;8.70;;
1785;SDS011;890;48.158;11.540;2023-02-24T00:41:35;10.00;;;8.10;;
1785;SDS011;890;48.158;11.540;2023-02-24T00:44:04;8.47;;;7.60;;
1785;SDS011;890;48.158;11.540;2023-02-24T00:46:35;9.20;;;8.30;;
1785;SDS011;890;48.158;11.540;2023-02-24T00:49:04;9.70;;;7.73;;
1785;SDS011;890;48.158;11.540;2023-02-24T00:51:36;9.07;;;8.17;;
1785;SDS011;890;48.158;11.540;2023-02-24T00:54:05;10.30;;;8.00;;
1785;SDS011;890;48.158;11.540;2023-02-24T00:56:32;8.97;;;7.73;;
1785;SDS011;890;48.158;11.540;2023-02-24T00:58:59;9.97;;;7.90;;
1785;SDS011;890;48.158;11.540;2023-02-24T01:01:27;8.47;;;7.53;;
1785;SDS011;890;48.158;11.540;2023-02-24T01:03:57;9.80;;;7.83;;
1785;SDS011;890;48.158;11.540;2023-02-24T01:06:25;9.20;;;7.90;;
1785;SDS011;890;48.158;11.540;2023-02-24T01:08:53;11.17;;;8.30;;
1785;SDS011;890;48.158;11.540;2023-02-24T01:11:20;8.23;;;7.40;;
1785;SDS011;890;48.158;11.540;2023-02-24T01:14:08;9.40;;;7.67;;
1785;SDS011;890;48.158;11.540;2023-02-24T01:16:37;8.60;;;7.30;;
1785;SDS011;890;48.158;11.540;2023-02-24T01:19:05;10.47;;;7.90;;
1785;SDS011;890;48.158;11.540;2023-02-24T01:21:32;9.10;;;7.23;;
1785;SDS011;890;48.158;11.540;2023-02-24T01:23:58;9.00;;;7.57;;
1785;SDS011;890;48.158;11.540;2023-02-24T01:26:24;9.20;;;8.20;;
1785;SDS011;890;48.158;11.540;2023-02-24T01:28:51;15.80;;;7.80;;
1785;SDS011;890;48.158;11.540;2023-02-24T01:31:18;8.27;;;7.43;;
1785;SDS011;890;48.158;11.540;2023-02-24T01:33:47;9.30;;;7.67;;
1785;SDS011;890;48.158;11.540;2023-02-24T01:36:15;12.37;;;7.93;;
1785;SDS011;890;48.158;11.540;2023-02-24T01:38:43;10.53;;;7.57;;
1785;SDS011;890;48.158;11.540;2023-02-24T01:41:13;9.87;;;7.80;;
1785;SDS011;890;48.158;11.540;2023-02-24T01:43:54;9.90;;;7.40;;
1785;SDS011;890;48.158;11.540;2023-02-24T01:46:36;10.33;;;8.17;;
1785;SDS011;890;48.158;11.540;2023-02-24T01:51:58;10.60;;;7.40;;
1785;SDS011;890;48.158;11.540;2023-02-24T01:54:31;9.33;;;7.87;;
1785;SDS011;890;48.158;11.540;2023-02-24T01:57:25;8.83;;;7.40;;
1785;SDS011;890;48.158;11.540;2023-02-24T01:59:53;10.07;;;8.03;;
1785;SDS011;890;48.158;11.540;2023-02-24T02:02:26;9.00;;;7.90;;
1785;SDS011;890;48.158;11.540;2023-02-24T02:05:10;8.43;;;7.50;;
1785;SDS011;890;48.158;11.540;2023-02-24T02:07:37;9.27;;;7.77;;
1785;SDS011;890;48.158;11.540;2023-02-24T02:10:05;8.53;;;7.70;;
1785;SDS011;890;48.158;11.540;2023-02-24T02:12:34;9.20;;;8.13;;
1785;SDS011;890;48.158;11.540;2023-02-24T02:15:02;8.43;;;7.63;;
1785;SDS011;890;48.158;11.540;2023-02-24T02:25:45;9.80;;;8.10;;
1785;SDS011;890;48.158;11.540;2023-02-24T02:31:05;10.80;;;7.53;;
1785;SDS011;890;48.158;11.540;2023-02-24T02:40:00;8.93;;;7.67;;
1785;SDS011;890;48.158;11.540;2023-02-24T02:42:40;8.37;;;7.57;;
1785;SDS011;890;48.158;11.540;2023-02-24T02:45:15;9.40;;;7.30;;
1785;SDS011;890;48.158;11.540;2023-02-24T02:55:21;7.83;;;6.93;;
1785;SDS011;890;48.158;11.540;2023-02-24T02:58:10;8.67;;;7.77;;
1785;SDS011;890;48.158;11.540;2023-02-24T03:00:47;7.93;;;7.20;;
1785;SDS011;890;48.158;11.540;2023-02-24T03:03:25;8.63;;;7.73;;
1785;SDS011;890;48.158;11.540;2023-02-24T03:06:04;8.33;;;7.53;;
1785;SDS011;890;48.158;11.540;2023-02-24T03:08:35;10.80;;;8.03;;
1785;SDS011;890;48.158;11.540;2023-02-24T03:11:04;10.77;;;7.77;;
1785;SDS011;890;48.158;11.540;2023-02-24T03:13:38;9.40;;;7.80;;
1785;SDS011;890;48.158;11.540;2023-02-24T03:16:05;7.57;;;6.73;;
1785;SDS011;890;48.158;11.540;2023-02-24T03:18:36;7.40;;;6.70;;
1785;SDS011;890;48.158;11.540;2023-02-24T03:23:34;7.23;;;6.53;;
1785;SDS011;890;48.158;11.540;2023-02-24T03:26:24;8.43;;;7.00;;
1785;SDS011;890;48.158;11.540;2023-02-24T03:28:57;8.93;;;7.07;;
1785;SDS011;890;48.158;11.540;2023-02-24T03:32:01;8.90;;;8.00;;
1785;SDS011;890;48.158;11.540;2023-02-24T03:34:28;7.03;;;6.33;;
1785;SDS011;890;48.158;11.540;2023-02-24T03:37:03;10.80;;;7.00;;
1785;SDS011;890;48.158;11.540;2023-02-24T03:39:29;9.03;;;7.40;;
1785;SDS011;890;48.158;11.540;2023-02-24T03:44:25;7.40;;;6.60;;
1785;SDS011;890;48.158;11.540;2023-02-24T03:46:52;8.70;;;6.40;;
1785;SDS011;890;48.158;11.540;2023-02-24T03:49:19;7.40;;;6.70;;
1785;SDS011;890;48.158;11.540;2023-02-24T03:51:53;8.10;;;6.83;;
1785;SDS011;890;48.158;11.540;2023-02-24T04:02:11;8.77;;;6.50;;
1785;SDS011;890;48.158;11.540;2023-02-24T04:04:49;7.77;;;6.50;;
1785;SDS011;890;48.158;11.540;2023-02-24T04:13:05;10.40;;;6.57;;
1785;SDS011;890;48.158;11.540;2023-02-24T04:16:00;10.03;;;7.50;;
1785;SDS011;890;48.158;11.540;2023-02-24T04:18:33;8.20;;;6.50;;
1785;SDS011;890;48.158;11.540;2023-02-24T04:20:59;7.67;;;6.27;;
1785;SDS011;890;48.158;11.540;2023-02-24T04:23:32;9.80;;;6.20;;
1785;SDS011;890;48.158;11.540;2023-02-24T04:26:03;11.20;;;7.60;;
1785;SDS011;890;48.158;11.540;2023-02-24T04:28:31;6.33;;;5.73;;
1785;SDS011;890;48.158;11.540;2023-02-24T04:30:58;8.93;;;6.40;;
1785;SDS011;890;48.158;11.540;2023-02-24T04:33:30;6.40;;;5.47;;
1785;SDS011;890;48.158;11.540;2023-02-24T04:35:57;6.87;;;6.03;;
1785;SDS011;890;48.158;11.540;2023-02-24T04:38:23;11.93;;;6.47;;
1785;SDS011;890;48.158;11.540;2023-02-24T04:40:49;6.60;;;5.90;;
1785;SDS011;890;48.158;11.540;2023-02-24T04:43:15;6.33;;;5.73;;
1785;SDS011;890;48.158;11.540;2023-02-24T04:45:41;11.60;;;6.20;;
1785;SDS011;890;48.158;11.540;2023-02-24T04:48:07;6.30;;;5.70;;
1785;SDS011;890;48.158;11.540;2023-02-24T04:50:37;8.00;;;5.87;;
1785;SDS011;890;48.158;11.540;2023-02-24T04:53:05;6.17;;;5.37;;
1785;SDS011;890;48.158;11.540;2023-02-24T04:55:37;7.00;;;5.70;;
1785;SDS011;890;48.158;11.540;2023-02-24T04:58:08;9.77;;;5.57;;
1785;SDS011;890;48.158;11.540;2023-02-24T05:00:36;9.57;;;6.70;;
1785;SDS011;890;48.158;11.540;2023-02-24T05:03:06;8.00;;;5.57;;
1785;SDS011;890;48.158;11.540;2023-02-24T05:05:32;7.77;;;5.70;;
1785;SDS011;890;48.158;11.540;2023-02-24T05:07:59;7.60;;;5.20;;
1785;SDS011;890;48.158;11.540;2023-02-24T05:10:36;8.00;;;5.53;;
1785;SDS011;890;48.158;11.540;2023-02-24T05:13:08;6.70;;;5.50;;
1785;SDS011;890;48.158;11.540;2023-02-24T05:15:41;6.57;;;5.77;;
1785;SDS011;890;48.158;11.540;2023-02-24T05:18:09;7.13;;;5.00;;
1785;SDS011;890;48.158;11.540;2023-02-24T05:20:39;6.50;;;5.57;;
1785;SDS011;890;48.158;11.540;2023-02-24T05:23:28;9.77;;;6.53;;
1785;SDS011;890;48.158;11.540;2023-02-24T05:25:59;6.30;;;5.77;;
1785;SDS011;890;48.158;11.540;2023-02-24T05:28:26;7.70;;;5.70;;
1785;SDS011;890;48.158;11.540;2023-02-24T05:31:02;9.13;;;5.97;;
1785;SDS011;890;48.158;11.540;2023-02-24T05:33:32;7.60;;;5.57;;
1785;SDS011;890;48.158;11.540;2023-02-24T05:36:05;7.37;;;5.80;;
1785;SDS011;890;48.158;11.540;2023-02-24T05:38:33;10.37;;;6.47;;
1785;SDS011;890;48.158;11.540;2023-02-24T05:41:08;7.07;;;5.83;;
1785;SDS011;890;48.158;11.540;2023-02-24T05:43:42;7.03;;;5.90;;
1785;SDS011;890;48.158;11.540;2023-02-24T05:46:16;7.87;;;6.17;;
1785;SDS011;890;48.158;11.540;2023-02-24T05:48:43;9.53;;;6.27;;
1785;SDS011;890;48.158;11.540;2023-02-24T05:51:09;8.40;;;6.50;;
1785;SDS011;890;48.158;11.540;2023-02-24T05:53:37;7.37;;;5.60;;
1785;SDS011;890;48.158;11.540;2023-02-24T05:56:09;9.47;;;6.80;;
1785;SDS011;890;48.158;11.540;2023-02-24T05:58:35;6.73;;;6.10;;
1785;SDS011;890;48.158;11.540;2023-02-24T06:01:10;6.90;;;6.17;;
1785;SDS011;890;48.158;11.540;2023-02-24T06:03:43;6.83;;;6.10;;
1785;SDS011;890;48.158;11.540;2023-02-24T06:06:16;9.37;;;6.70;;
1785;SDS011;890;48.158;11.540;2023-02-24T06:08:42;8.47;;;6.63;;
1785;SDS011;890;48.158;11.540;2023-02-24T06:11:15;9.80;;;7.80;;
1785;SDS011;890;48.158;11.540;2023-02-24T06:13:44;8.70;;;6.43;;
1785;SDS011;890;48.158;11.540;2023-02-24T06:16:14;7.80;;;6.73;;
1785;SDS011;890;48.158;11.540;2023-02-24T06:18:41;8.97;;;6.70;;
1785;SDS011;890;48.158;11.540;2023-02-24T06:21:08;6.87;;;6.17;;
1785;SDS011;890;48.158;11.540;2023-02-24T06:23:37;10.20;;;7.17;;
1785;SDS011;890;48.158;11.540;2023-02-24T06:26:05;10.43;;;6.70;;
1785;SDS011;890;48.158;11.540;2023-02-24T06:28:37;10.07;;;7.07;;
1785;SDS011;890;48.158;11.540;2023-02-24T06:31:09;13.00;;;7.00;;
1785;SDS011;890;48.158;11.540;2023-02-24T06:33:35;15.57;;;9.30;;
1785;SDS011;890;48.158;11.540;2023-02-24T06:36:03;12.47;;;9.60;;
1785;SDS011;890;48.158;11.540;2023-02-24T06:38:38;10.53;;;8.10;;
1785;SDS011;890;48.158;11.540;2023-02-24T06:41:04;9.00;;;7.80;;
1785;SDS011;890;48.158;11.540;2023-02-24T06:43:44;7.40;;;6.70;;
1785;SDS011;890;48.158;11.540;2023-02-24T06:46:12;7.80;;;6.90;;
1785;SDS011;890;48.158;11.540;2023-02-24T06:48:41;8.60;;;7.37;;
1785;SDS011;890;48.158;11.540;2023-02-24T06:51:08;9.70;;;7.20;;
1785;SDS011;890;48.158;11.540;2023-02-24T06:53:37;7.73;;;6.67;;
1785;SDS011;890;48.158;11.540;2023-02-24T06:56:07;7.80;;;6.83;;
1785;SDS011;890;48.158;11.540;2023-02-24T06:58:44;9.70;;;7.70;;
1785;SDS011;890;48.158;11.540;2023-02-24T07:01:16;7.70;;;6.97;;
1785;SDS011;890;48.158;11.540;2023-02-24T07:03:44;8.07;;;7.27;;
1785;SDS011;890;48.158;11.540;2023-02-24T07:06:32;8.97;;;7.10;;
1785;SDS011;890;48.158;11.540;2023-02-24T07:09:05;7.10;;;6.37;;
1785;SDS011;890;48.158;11.540;2023-02-24T07:11:33;9.17;;;7.00;;
1785;SDS011;890;48.158;11.540;2023-02-24T07:14:00;9.90;;;7.20;;
1785;SDS011;890;48.158;11.540;2023-02-24T07:16:26;8.40;;;7.50;;
1785;SDS011;890;48.158;11.540;2023-02-24T07:18:53;9.90;;;7.57;;
1785;SDS011;890;48.158;11.540;2023-02-24T07:21:22;9.80;;;7.27;;
1785;SDS011;890;48.158;11.540;2023-02-24T07:23:49;8.00;;;7.20;;
1785;SDS011;890;48.158;11.540;2023-02-24T07:26:20;14.53;;;12.00;;
1785;SDS011;890;48.158;11.540;2023-02-24T07:28:48;10.70;;;7.30;;
1785;SDS011;890;48.158;11.540;2023-02-24T07:31:16;12.23;;;7.87;;
1785;SDS011;890;48.158;11.540;2023-02-24T07:33:43;12.40;;;8.07;;
1785;SDS011;890;48.158;11.540;2023-02-24T07:36:11;11.00;;;7.60;;
1785;SDS011;890;48.158;11.540;2023-02-24T07:38:47;8.77;;;7.40;;
1785;SDS011;890;48.158;11.540;2023-02-24T07:41:16;9.23;;;6.80;;
1785;SDS011;890;48.158;11.540;2023-02-24T07:43:46;11.33;;;7.47;;
1785;SDS011;890;48.158;11.540;2023-02-24T07:46:14;11.50;;;7.47;;
1785;SDS011;890;48.158;11.540;2023-02-24T07:48:43;12.63;;;8.10;;
1785;SDS011;890;48.158;11.540;2023-02-24T07:51:12;10.60;;;7.40;;
1785;SDS011;890;48.158;11.540;2023-02-24T07:53:40;11.00;;;8.53;;
1785;SDS011;890;48.158;11.540;2023-02-24T07:56:07;10.47;;;7.77;;
1785;SDS011;890;48.158;11.540;2023-02-24T07:58:38;9.47;;;8.20;;
1785;SDS011;890;48.158;11.540;2023-02-24T08:01:08;9.77;;;7.33;;
1785;SDS011;890;48.158;11.540;2023-02-24T08:03:42;11.53;;;8.20;;
1785;SDS011;890;48.158;11.540;2023-02-24T08:06:08;12.50;;;8.33;;
1785;SDS011;890;48.158;11.540;2023-02-24T08:08:40;10.27;;;7.87;;
1785;SDS011;890;48.158;11.540;2023-02-24T08:11:25;11.57;;;8.03;;
1785;SDS011;890;48.158;11.540;2023-02-24T08:13:59;13.90;;;9.50;;
1785;SDS011;890;48.158;11.540;2023-02-24T08:16:34;15.43;;;9.27;;
1785;SDS011;890;48.158;11.540;2023-02-24T08:19:15;13.80;;;8.17;;
1785;SDS011;890;48.158;11.540;2023-02-24T08:21:46;14.87;;;9.87;;
1785;SDS011;890;48.158;11.540;2023-02-24T08:24:18;13.90;;;9.20;;
1785;SDS011;890;48.158;11.540;2023-02-24T08:26:48;15.50;;;9.10;;
1785;SDS011;890;48.158;11.540;2023-02-24T08:29:30;11.80;;;8.90;;
1785;SDS011;890;48.158;11.540;2023-02-24T08:32:19;13.30;;;8.87;;
1785;SDS011;890;48.158;11.540;2023-02-24T08:34:48;14.90;;;9.10;;
1785;SDS011;890;48.158;11.540;2023-02-24T08:37:14;12.03;;;9.30;;
1785;SDS011;890;48.158;11.540;2023-02-24T08:39:42;12.13;;;8.47;;
1785;SDS011;890;48.158;11.540;2023-02-24T08:42:09;12.07;;;8.17;;
1785;SDS011;890;48.158;11.540;2023-02-24T08:44:38;13.50;;;9.27;;
1785;SDS011;890;48.158;11.540;2023-02-24T08:47:08;17.37;;;12.10;;
1785;SDS011;890;48.158;11.540;2023-02-24T08:49:34;27.90;;;18.90;;
1785;SDS011;890;48.158;11.540;2023-02-24T08:51:59;15.70;;;10.70;;
1785;SDS011;890;48.158;11.540;2023-02-24T08:54:31;10.50;;;8.10;;
1785;SDS011;890;48.158;11.540;2023-02-24T08:56:57;23.73;;;9.40;;
1785;SDS011;890;48.158;11.540;2023-02-24T08:59:32;13.80;;;9.13;;
1785;SDS011;890;48.158;11.540;2023-02-24T09:02:02;12.70;;;8.60;;
1785;SDS011;890;48.158;11.540;2023-02-24T09:04:48;15.17;;;8.87;;
1785;SDS011;890;48.158;11.540;2023-02-24T09:07:20;12.93;;;8.97;;
1785;SDS011;890;48.158;11.540;2023-02-24T09:09:50;12.57;;;8.70;;
1785;SDS011;890;48.158;11.540;2023-02-24T09:12:21;13.23;;;8.70;;
1785;SDS011;890;48.158;11.540;2023-02-24T09:15:00;13.97;;;8.97;;
1785;SDS011;890;48.158;11.540;2023-02-24T09:17:29;18.07;;;9.30;;
1785;SDS011;890;48.158;11.540;2023-02-24T09:22:53;13.30;;;9.03;;
1785;SDS011;890;48.158;11.540;2023-02-24T09:25:35;17.30;;;9.67;;
1785;SDS011;890;48.158;11.540;2023-02-24T09:28:09;13.63;;;8.70;;
1785;SDS011;890;48.158;11.540;2023-02-24T09:30:46;17.30;;;10.00;;
1785;SDS011;890;48.158;11.540;2023-02-24T09:33:29;13.07;;;7.73;;
1785;SDS011;890;48.158;11.540;2023-02-24T09:38:34;14.80;;;9.63;;
1785;SDS011;890;48.158;11.540;2023-02-24T09:41:35;12.53;;;9.30;;
1785;SDS011;890;48.158;11.540;2023-02-24T09:44:34;17.67;;;10.10;;
1785;SDS011;890;48.158;11.540;2023-02-24T09:49:59;12.27;;;8.60;;
1785;SDS011;890;48.158;11.540;2023-02-24T09:52:38;13.27;;;9.27;;
1785;SDS011;890;48.158;11.540;2023-02-24T09:55:15;13.53;;;7.73;;
1785;SDS011;890;48.158;11.540;2023-02-24T09:58:10;11.93;;;8.10;;
1785;SDS011;890;48.158;11.540;2023-02-24T10:00:46;14.63;;;7.40;;
1785;SDS011;890;48.158;11.540;2023-02-24T10:03:50;14.80;;;8.63;;
1785;SDS011;890;48.158;11.540;2023-02-24T10:06:51;14.00;;;9.90;;
1785;SDS011;890;48.158;11.540;2023-02-24T10:11:48;13.40;;;10.03;;
1785;SDS011;890;48.158;11.540;2023-02-24T10:17:09;16.40;;;11.23;;
1785;SDS011;890;48.158;11.540;2023-02-24T10:19:50;16.10;;;10.03;;
1785;SDS011;890;48.158;11.540;2023-02-24T10:22:54;13.90;;;9.20;;
1785;SDS011;890;48.158;11.540;2023-02-24T10:29:01;15.00;;;10.57;;
1785;SDS011;890;48.158;11.540;2023-02-24T10:31:21;14.40;;;10.20;;
1785;SDS011;890;48.158;11.540;2023-02-24T10:34:11;13.37;;;9.87;;
1785;SDS011;890;48.158;11.540;2023-02-24T10:36:49;16.50;;;10.97;;
1785;SDS011;890;48.158;11.540;2023-02-24T10:39:16;13.77;;;10.60;;
1785;SDS011;890;48.158;11.540;2023-02-24T10:41:51;14.53;;;11.87;;
1785;SDS011;890;48.158;11.540;2023-02-24T10:44:24;16.20;;;11.07;;
1785;SDS011;890;48.158;11.540;2023-02-24T10:47:09;16.27;;;11.43;;
1785;SDS011;890;48.158;11.540;2023-02-24T10:49:44;17.87;;;10.63;;
1785;SDS011;890;48.158;11.540;2023-02-24T10:52:39;18.87;;;12.43;;
1785;SDS011;890;48.158;11.540;2023-02-24T10:55:23;72.90;;;60.47;;
1785;SDS011;890;48.158;11.540;2023-02-24T10:58:01;23.70;;;15.20;;
1785;SDS011;890;48.158;11.540;2023-02-24T11:00:42;13.67;;;9.90;;
1785;SDS011;890;48.158;11.540;2023-02-24T11:03:29;13.43;;;9.77;;
1785;SDS011;890;48.158;11.540;2023-02-24T11:06:17;16.30;;;9.90;;
1785;SDS011;890;48.158;11.540;2023-02-24T11:08:57;11.77;;;8.50;;
1785;SDS011;890;48.158;11.540;2023-02-24T11:11:43;15.93;;;9.70;;
1785;SDS011;890;48.158;11.540;2023-02-24T11:14:29;15.00;;;10.17;;
1785;SDS011;890;48.158;11.540;2023-02-24T11:17:20;17.23;;;9.83;;
1785;SDS011;890;48.158;11.540;2023-02-24T11:22:40;13.10;;;8.80;;
1785;SDS011;890;48.158;11.540;2023-02-24T11:25:12;11.60;;;8.13;;
1785;SDS011;890;48.158;11.540;2023-02-24T11:27:48;13.00;;;9.07;;
1785;SDS011;890;48.158;11.540;2023-02-24T11:33:01;16.93;;;10.63;;
1785;SDS011;890;48.158;11.540;2023-02-24T11:35:58;14.27;;;10.03;;
1785;SDS011;890;48.158;11.540;2023-02-24T11:41:29;16.57;;;10.17;;
1785;SDS011;890;48.158;11.540;2023-02-24T11:44:01;10.63;;;9.47;;
1785;SDS011;890;48.158;11.540;2023-02-24T11:46:42;14.23;;;9.20;;
1785;SDS011;890;48.158;11.540;2023-02-24T11:49:26;14.13;;;10.07;;
1785;SDS011;890;48.158;11.540;2023-02-24T11:52:15;12.03;;;9.23;;
1785;SDS011;890;48.158;11.540;2023-02-24T11:54:51;17.80;;;10.00;;
1785;SDS011;890;48.158;11.540;2023-02-24T11:57:22;15.23;;;10.60;;
1785;SDS011;890;48.158;11.540;2023-02-24T12:05:35;18.70;;;11.37;;
1785;SDS011;890;48.158;11.540;2023-02-24T12:10:44;16.10;;;11.00;;
1785;SDS011;890;48.158;11.540;2023-02-24T12:16:06;15.60;;;11.40;;
1785;SDS011;890;48.158;11.540;2023-02-24T12:18:35;19.00;;;12.10;;
1785;SDS011;890;48.158;11.540;2023-02-24T12:21:14;17.50;;;12.43;;
1785;SDS011;890;48.158;11.540;2023-02-24T12:23:59;17.30;;;11.27;;
1785;SDS011;890;48.158;11.540;2023-02-24T12:26:32;16.90;;;11.47;;
1785;SDS011;890;48.158;11.540;2023-02-24T12:35:22;15.53;;;11.07;;
1785;SDS011;890;48.158;11.540;2023-02-24T12:38:29;15.77;;;10.73;;
1785;SDS011;890;48.158;11.540;2023-02-24T12:43:42;13.87;;;10.57;;
1785;SDS011;890;48.158;11.540;2023-02-24T12:46:23;13.67;;;9.37;;
1785;SDS011;890;48.158;11.540;2023-02-24T12:54:23;16.53;;;9.50;;
1785;SDS011;890;48.158;11.540;2023-02-24T12:56:59;15.23;;;9.57;;
1785;SDS011;890;48.158;11.540;2023-02-24T12:59:41;13.47;;;9.80;;
1785;SDS011;890;48.158;11.540;2023-02-24T13:02:27;15.30;;;10.07;;
1785;SDS011;890;48.158;11.540;2023-02-24T13:13:08;13.70;;;9.33;;
1785;SDS011;890;48.158;11.540;2023-02-24T13:15:51;16.73;;;10.90;;
1785;SDS011;890;48.158;11.540;2023-02-24T13:18:23;18.27;;;11.40;;
1785;SDS011;890;48.158;11.540;2023-02-24T13:21:27;13.60;;;9.47;;
1785;SDS011;890;48.158;11.540;2023-02-24T13:23:53;16.97;;;10.93;;
1785;SDS011;890;48.158;11.540;2023-02-24T13:26:22;13.60;;;11.17;;
1785;SDS011;890;48.158;11.540;2023-02-24T13:29:03;17.10;;;11.67;;
1785;SDS011;890;48.158;11.540;2023-02-24T13:31:53;21.17;;;11.23;;
1785;SDS011;890;48.158;11.540;2023-02-24T13:36:46;15.90;;;10.13;;
1785;SDS011;890;48.158;11.540;2023-02-24T13:42:19;18.37;;;10.90;;
1785;SDS011;890;48.158;11.540;2023-02-24T13:47:30;18.40;;;11.50;;
1785;SDS011;890;48.158;11.540;2023-02-24T13:50:22;15.43;;;11.20;;
1785;SDS011;890;48.158;11.540;2023-02-24T14:01:30;17.57;;;11.40;;
1785;SDS011;890;48.158;11.540;2023-02-24T14:06:37;16.73;;;11.93;;
1785;SDS011;890;48.158;11.540;2023-02-24T14:09:03;20.70;;;11.80;;
1785;SDS011;890;48.158;11.540;2023-02-24T14:11:31;20.20;;;11.93;;
1785;SDS011;890;48.158;11.540;2023-02-24T14:14:00;18.37;;;12.20;;
1785;SDS011;890;48.158;11.540;2023-02-24T14:16:31;21.70;;;13.53;;
1785;SDS011;890;48.158;11.540;2023-02-24T14:19:00;16.27;;;11.50;;
1785;SDS011;890;48.158;11.540;2023-02-24T14:21:28;17.80;;;11.57;;
1785;SDS011;890;48.158;11.540;2023-02-24T14:23:59;16.90;;;11.60;;
1785;SDS011;890;48.158;11.540;2023-02-24T14:26:27;17.63;;;11.40;;
1785;SDS011;890;48.158;11.540;2023-02-24T14:28:59;15.40;;;10.60;;
1785;SDS011;890;48.158;11.540;2023-02-24T14:31:25;17.53;;;12.00;;
1785;SDS011;890;48.158;11.540;2023-02-24T14:33:56;18.77;;;11.30;;
1785;SDS011;890;48.158;11.540;2023-02-24T14:36:25;18.53;;;11.80;;
1785;SDS011;890;48.158;11.540;2023-02-24T14:39:02;17.13;;;11.73;;
1785;SDS011;890;48.158;11.540;2023-02-24T14:41:31;18.00;;;11.70;;
1785;SDS011;890;48.158;11.540;2023-02-24T14:44:03;18.90;;;12.10;;
1785;SDS011;890;48.158;11.540;2023-02-24T14:46:32;19.33;;;12.50;;
1785;SDS011;890;48.158;11.540;2023-02-24T14:48:58;16.10;;;11.80;;
1785;SDS011;890;48.158;11.540;2023-02-24T14:51:26;20.37;;;11.50;;
1785;SDS011;890;48.158;11.540;2023-02-24T14:53:59;19.60;;;13.27;;
1785;SDS011;890;48.158;11.540;2023-02-24T14:56:29;25.80;;;13.20;;
1785;SDS011;890;48.158;11.540;2023-02-24T14:58:57;18.23;;;12.67;;
1785;SDS011;890;48.158;11.540;2023-02-24T15:01:42;20.13;;;12.23;;
1785;SDS011;890;48.158;11.540;2023-02-24T15:04:54;21.47;;;12.67;;
1785;SDS011;890;48.158;11.540;2023-02-24T15:07:13;19.93;;;12.57;;
1785;SDS011;890;48.158;11.540;2023-02-24T15:09:45;16.00;;;11.30;;
1785;SDS011;890;48.158;11.540;2023-02-24T15:14:52;17.67;;;12.67;;
1785;SDS011;890;48.158;11.540;2023-02-24T15:17:30;18.70;;;11.97;;
1785;SDS011;890;48.158;11.540;2023-02-24T15:19:56;18.70;;;11.60;;
1785;SDS011;890;48.158;11.540;2023-02-24T15:24:51;16.70;;;12.27;;
1785;SDS011;890;48.158;11.540;2023-02-24T15:27:34;16.77;;;10.40;;
1785;SDS011;890;48.158;11.540;2023-02-24T15:30:02;17.10;;;11.00;;
1785;SDS011;890;48.158;11.540;2023-02-24T15:32:33;15.53;;;9.50;;
1785;SDS011;890;48.158;11.540;2023-02-24T15:35:00;20.10;;;11.20;;
1785;SDS011;890;48.158;11.540;2023-02-24T15:37:36;17.70;;;11.13;;
1785;SDS011;890;48.158;11.540;2023-02-24T15:40:18;15.63;;;10.77;;
1785;SDS011;890;48.158;11.540;2023-02-24T15:43:29;20.87;;;11.50;;
1785;SDS011;890;48.158;11.540;2023-02-24T15:45:37;17.47;;;10.30;;
1785;SDS011;890;48.158;11.540;2023-02-24T15:48:17;22.37;;;11.87;;
1785;SDS011;890;48.158;11.540;2023-02-24T15:50:45;18.47;;;11.70;;
1785;SDS011;890;48.158;11.540;2023-02-24T15:53:11;18.07;;;11.73;;
1785;SDS011;890;48.158;11.540;2023-02-24T15:55:37;17.77;;;11.67;;
1785;SDS011;890;48.158;11.540;2023-02-24T15:58:10;19.63;;;11.97;;
1785;SDS011;890;48.158;11.540;2023-02-24T16:00:41;14.50;;;10.33;;
1785;SDS011;890;48.158;11.540;2023-02-24T16:03:07;24.43;;;11.97;;
1785;SDS011;890;48.158;11.540;2023-02-24T16:05:32;17.37;;;10.93;;
1785;SDS011;890;48.158;11.540;2023-02-24T16:07:58;20.93;;;11.80;;
1785;SDS011;890;48.158;11.540;2023-02-24T16:10:24;19.70;;;11.60;;
1785;SDS011;890;48.158;11.540;2023-02-24T16:12:53;23.23;;;12.33;;
1785;SDS011;890;48.158;11.540;2023-02-24T16:15:23;19.10;;;11.50;;
1785;SDS011;890;48.158;11.540;2023-02-24T16:17:54;22.67;;;12.90;;
1785;SDS011;890;48.158;11.540;2023-02-24T16:20:22;17.20;;;11.40;;
1785;SDS011;890;48.158;11.540;2023-02-24T16:22:56;18.63;;;11.80;;
1785;SDS011;890;48.158;11.540;2023-02-24T16:25:23;14.90;;;11.37;;
1785;SDS011;890;48.158;11.540;2023-02-24T16:27:49;18.33;;;10.83;;
1785;SDS011;890;48.158;11.540;2023-02-24T16:30:21;20.20;;;11.70;;
1785;SDS011;890;48.158;11.540;2023-02-24T16:32:48;19.67;;;11.40;;
1785;SDS011;890;48.158;11.540;2023-02-24T16:35:14;17.60;;;10.63;;
1785;SDS011;890;48.158;11.540;2023-02-24T16:37:39;15.83;;;11.03;;
1785;SDS011;890;48.158;11.540;2023-02-24T16:40:16;20.80;;;11.80;;
1785;SDS011;890;48.158;11.540;2023-02-24T16:42:54;15.40;;;10.80;;
1785;SDS011;890;48.158;11.540;2023-02-24T16:45:21;15.30;;;10.97;;
1785;SDS011;890;48.158;11.540;2023-02-24T16:47:50;17.93;;;10.60;;
1785;SDS011;890;48.158;11.540;2023-02-24T16:50:22;17.20;;;10.40;;
1785;SDS011;890;48.158;11.540;2023-02-24T16:52:57;20.67;;;9.63;;
1785;SDS011;890;48.158;11.540;2023-02-24T16:55:23;14.50;;;8.97;;
1785;SDS011;890;48.158;11.540;2023-02-24T16:57:48;10.73;;;6.37;;
1785;SDS011;890;48.158;11.540;2023-02-24T17:00:14;14.67;;;7.30;;
1785;SDS011;890;48.158;11.540;2023-02-24T17:02:44;13.60;;;7.40;;
1785;SDS011;890;48.158;11.540;2023-02-24T17:05:15;16.87;;;7.60;;
1785;SDS011;890;48.158;11.540;2023-02-24T17:07:41;15.23;;;7.13;;
1785;SDS011;890;48.158;11.540;2023-02-24T17:10:08;13.50;;;6.50;;
1785;SDS011;890;48.158;11.540;2023-02-24T17:12:34;14.17;;;7.13;;
1785;SDS011;890;48.158;11.540;2023-02-24T17:14:59;13.43;;;6.73;;
1785;SDS011;890;48.158;11.540;2023-02-24T17:17:25;17.63;;;8.10;;
1785;SDS011;890;48.158;11.540;2023-02-24T17:19:50;14.57;;;7.50;;
1785;SDS011;890;48.158;11.540;2023-02-24T17:22:16;14.13;;;7.43;;
1785;SDS011;890;48.158;11.540;2023-02-24T17:24:42;17.57;;;6.47;;
1785;SDS011;890;48.158;11.540;2023-02-24T17:27:08;15.47;;;7.70;;
1785;SDS011;890;48.158;11.540;2023-02-24T17:29:34;14.50;;;7.40;;
1785;SDS011;890;48.158;11.540;2023-02-24T17:32:00;18.10;;;7.27;;
1785;SDS011;890;48.158;11.540;2023-02-24T17:34:26;16.23;;;7.00;;
1785;SDS011;890;48.158;11.540;2023-02-24T17:36:51;14.17;;;6.20;;
1785;SDS011;890;48.158;11.540;2023-02-24T17:39:17;10.50;;;5.73;;
1785;SDS011;890;48.158;11.540;2023-02-24T17:41:43;13.90;;;5.57;;
1785;SDS011;890;48.158;11.540;2023-02-24T17:44:09;15.40;;;5.40;;
1785;SDS011;890;48.158;11.540;2023-02-24T17:46:34;10.17;;;4.20;;